createdAt,value
2018-04-12T00:01:05.485Z,75.80
2018-04-12T00:03:34.612Z,76.50
2018-04-12T00:06:04.396Z,76.60
2018-04-12T00:08:35.932Z,76.90
2018-04-12T00:11:09.964Z,78.00
2018-04-12T00:13:41.313Z,80.00
2018-04-12T00:16:17.984Z,80.40
2018-04-12T00:18:49.019Z,81.40
2018-04-12T00:21:19.367Z,80.30
2018-04-12T00:23:52.219Z,80.10
2018-04-12T00:28:55.203Z,79.10
2018-04-12T00:31:24.888Z,81.70
2018-04-12T00:33:53.786Z,82.80
2018-04-12T00:36:24.583Z,81.20
2018-04-12T00:38:53.728Z,78.50
2018-04-12T00:41:27.233Z,79.40
2018-04-12T00:44:01.415Z,79.50
2018-04-12T00:46:31.236Z,80.90
2018-04-12T00:52:03.218Z,84.40
2018-04-12T00:54:32.528Z,84.40
2018-04-12T00:57:01.072Z,85.60
2018-04-12T00:59:29.513Z,86.40
2018-04-12T01:02:00.111Z,85.70
2018-04-12T01:04:30.450Z,85.30
2018-04-12T01:06:58.624Z,88.10
2018-04-12T01:12:02.791Z,83.90
2018-04-12T01:14:32.929Z,86.00
2018-04-12T01:17:02.905Z,88.80
2018-04-12T01:19:32.732Z,90.30
2018-04-12T01:22:09.483Z,91.30
2018-04-12T01:24:59.000Z,91.50
2018-04-12T01:27:28.055Z,89.30
2018-04-12T01:29:57.301Z,90.10
2018-04-12T01:32:27.813Z,89.20
2018-04-12T01:34:56.804Z,85.10
2018-04-12T01:37:25.228Z,85.80
2018-04-12T01:39:54.225Z,88.60
2018-04-12T01:42:24.285Z,89.50
2018-04-12T01:44:53.107Z,90.30
2018-04-12T01:47:23.382Z,90.70
2018-04-12T01:49:51.528Z,90.50
2018-04-12T01:52:20.924Z,87.80
2018-04-12T01:54:50.201Z,86.60
2018-04-12T01:57:19.086Z,86.60
2018-04-12T01:59:49.252Z,88.00
2018-04-12T02:02:36.939Z,88.40
2018-04-12T02:05:08.988Z,89.70
2018-04-12T02:07:37.214Z,87.10
2018-04-12T02:12:50.520Z,86.20
2018-04-12T02:15:22.204Z,87.40
2018-04-12T02:17:59.758Z,88.40
2018-04-12T02:20:29.861Z,90.30
2018-04-12T02:22:58.020Z,91.20
2018-04-12T02:25:26.299Z,92.20
2018-04-12T02:27:57.464Z,92.50
2018-04-12T02:30:26.836Z,91.20
2018-04-12T02:32:55.000Z,89.50
2018-04-12T02:35:23.150Z,90.50
2018-04-12T02:37:52.455Z,90.50
2018-04-12T02:40:22.177Z,87.60
2018-04-12T02:42:51.156Z,89.70
2018-04-12T02:45:19.315Z,90.90
2018-04-12T02:47:47.898Z,91.30
2018-04-12T02:50:18.578Z,90.50
2018-04-12T02:52:47.630Z,91.10
2018-04-12T02:55:17.955Z,91.60
2018-04-12T02:57:46.784Z,91.90
2018-04-12T03:00:15.300Z,91.70
2018-04-12T03:02:45.420Z,91.90
2018-04-12T03:05:15.099Z,91.80
2018-04-12T03:07:45.722Z,92.30
2018-04-12T03:10:14.791Z,92.10
2018-04-12T03:12:43.189Z,87.80
2018-04-12T03:15:11.874Z,88.10
2018-04-12T03:17:40.033Z,88.30
2018-04-12T03:20:09.317Z,90.00
2018-04-12T03:22:54.051Z,90.80
2018-04-12T03:25:22.395Z,91.80
2018-04-12T03:27:51.880Z,93.20
2018-04-12T03:30:20.687Z,93.60
2018-04-12T03:32:50.104Z,93.30
2018-04-12T03:35:21.253Z,92.00
2018-04-12T03:37:50.379Z,91.60
2018-04-12T03:40:18.557Z,91.80
2018-04-12T03:42:47.684Z,92.30
2018-04-12T03:45:19.657Z,91.10
2018-04-12T03:47:49.323Z,91.90
2018-04-12T03:50:18.912Z,92.70
2018-04-12T03:52:50.615Z,92.60
2018-04-12T03:55:20.967Z,93.40
2018-04-12T03:57:53.654Z,93.40
2018-04-12T04:00:22.959Z,94.10
2018-04-12T04:02:53.460Z,93.80
2018-04-12T04:05:26.261Z,93.60
2018-04-12T04:07:58.109Z,93.30
2018-04-12T04:10:30.620Z,93.20
2018-04-12T04:13:05.314Z,92.80
2018-04-12T04:15:46.066Z,90.80
2018-04-12T04:18:26.289Z,91.50
2018-04-12T04:21:13.930Z,92.00
2018-04-12T04:23:42.171Z,91.90
2018-04-12T04:26:12.998Z,91.50
2018-04-12T04:28:42.012Z,91.80
2018-04-12T04:31:13.311Z,91.60
2018-04-12T04:33:43.302Z,91.50
2018-04-12T04:36:13.593Z,91.40
2018-04-12T04:38:43.030Z,89.10
2018-04-12T04:41:11.849Z,90.20
2018-04-12T04:43:39.996Z,90.60
2018-04-12T04:46:09.003Z,90.90
2018-04-12T04:48:37.193Z,90.20
2018-04-12T04:51:13.069Z,90.10
2018-04-12T04:53:41.221Z,89.70
2018-04-12T04:56:15.514Z,89.90
2018-04-12T05:01:21.973Z,90.10
2018-04-12T05:03:56.346Z,90.60
2018-04-12T05:06:24.500Z,91.00
2018-04-12T05:09:06.856Z,90.50
2018-04-12T05:14:25.567Z,89.80
2018-04-12T05:16:54.824Z,89.20
2018-04-12T05:19:23.620Z,86.50
2018-04-12T05:22:07.348Z,89.30
2018-04-12T05:24:36.712Z,86.30
2018-04-12T05:27:08.319Z,85.40
2018-04-12T05:29:38.630Z,85.70
2018-04-12T05:32:08.206Z,87.70
2018-04-12T05:34:38.627Z,88.30
2018-04-12T05:37:07.770Z,87.80
2018-04-12T05:39:36.521Z,87.30
2018-04-12T05:42:09.165Z,87.80
2018-04-12T05:44:39.504Z,88.50
2018-04-12T05:47:09.921Z,87.40
2018-04-12T05:49:45.400Z,88.00
2018-04-12T05:52:13.608Z,87.90
2018-04-12T05:54:43.929Z,83.00
2018-04-12T05:57:13.866Z,76.20
2018-04-12T05:59:44.392Z,72.90
2018-04-12T06:02:17.906Z,68.80
2018-04-12T06:04:47.697Z,69.10
2018-04-12T06:07:17.510Z,71.90
2018-04-12T06:09:46.503Z,70.80
2018-04-12T06:12:15.797Z,72.40
2018-04-12T06:14:44.814Z,69.40
2018-04-12T06:17:14.044Z,71.00
2018-04-12T06:19:46.210Z,74.40
2018-04-12T06:22:17.357Z,78.20
2018-04-12T06:24:49.268Z,77.20
2018-04-12T06:27:21.637Z,76.30
2018-04-12T06:29:51.428Z,76.50
2018-04-12T06:32:25.584Z,77.10
2018-04-12T06:41:04.953Z,71.50
2018-04-12T06:48:57.425Z,66.50
2018-04-12T06:54:46.428Z,68.00
2018-04-12T06:57:17.398Z,65.80
2018-04-12T07:32:50.773Z,56.20
2018-04-12T16:37:19.927Z,1.00
2018-04-12T16:39:48.174Z,1.00
2018-04-12T16:42:20.976Z,1.00
2018-04-12T16:44:51.092Z,1.00
2018-04-12T16:47:20.488Z,1.00
2018-04-12T16:49:48.746Z,1.00
2018-04-12T16:52:16.956Z,1.00
2018-04-12T16:54:45.154Z,1.00
2018-04-12T16:57:14.756Z,1.00
2018-04-12T16:59:42.959Z,1.00
2018-04-12T17:02:13.169Z,1.00
2018-04-12T17:04:41.332Z,1.00
2018-04-12T17:07:10.325Z,1.00
2018-04-12T17:09:38.891Z,1.00
2018-04-12T17:12:08.074Z,1.00
2018-04-12T17:14:38.970Z,1.00
2018-04-12T17:17:07.160Z,1.00
2018-04-12T17:19:36.389Z,1.00
2018-04-12T17:22:04.836Z,1.00
2018-04-12T17:24:32.996Z,1.00
2018-04-12T17:27:01.925Z,1.00
2018-04-12T17:29:30.108Z,1.00
2018-04-12T17:31:59.413Z,1.00
2018-04-12T17:34:30.530Z,1.00
2018-04-12T17:36:58.827Z,1.00
2018-04-12T17:39:28.102Z,1.00
2018-04-12T17:41:56.411Z,1.00
2018-04-12T17:44:25.613Z,1.00
2018-04-12T17:46:54.113Z,1.00
2018-04-12T17:49:22.776Z,1.00
2018-04-12T17:51:57.059Z,1.00
2018-04-12T17:54:27.659Z,1.00
2018-04-12T17:56:56.025Z,1.00
2018-04-12T17:59:26.337Z,1.20
2018-04-12T18:02:04.989Z,1.00
2018-04-12T18:04:33.310Z,1.00
2018-04-12T18:07:01.514Z,1.20
2018-04-12T18:09:29.726Z,1.90
2018-04-12T18:12:01.224Z,3.00
2018-04-12T18:14:32.334Z,5.10
2018-04-12T18:17:00.493Z,6.10
2018-04-12T18:19:28.643Z,6.40
2018-04-12T18:22:03.683Z,8.30
2018-04-12T18:24:36.258Z,11.50
2018-04-12T18:27:04.681Z,12.60
2018-04-12T18:29:32.969Z,14.50
2018-04-12T18:32:10.970Z,14.30
2018-04-12T18:34:48.712Z,13.60
2018-04-12T18:37:17.628Z,14.80
2018-04-12T18:39:46.377Z,14.70
2018-04-12T18:42:21.319Z,15.80
2018-04-12T18:44:53.972Z,15.90
2018-04-12T18:47:26.327Z,16.50
2018-04-12T18:49:54.764Z,17.60
2018-04-12T18:52:29.826Z,18.70
2018-04-12T18:54:58.025Z,18.00
2018-04-12T18:57:33.523Z,18.90
2018-04-12T19:00:01.702Z,18.60
2018-04-12T19:02:32.257Z,20.30
2018-04-12T19:05:00.426Z,21.20
2018-04-12T19:07:29.357Z,20.70
2018-04-12T19:09:58.371Z,20.60
2018-04-12T19:12:26.536Z,23.00
2018-04-12T19:14:54.711Z,24.10
2018-04-12T19:17:24.111Z,23.10
2018-04-12T19:19:54.394Z,22.00
2018-04-12T19:22:29.928Z,23.90
2018-04-12T19:25:04.740Z,25.20
2018-04-12T19:27:34.282Z,23.90
2018-04-12T19:30:03.283Z,22.50
2018-04-12T19:32:34.329Z,20.70
2018-04-12T19:35:02.876Z,22.80
2018-04-12T19:37:34.539Z,23.20
2018-04-12T19:40:03.511Z,25.00
2018-04-12T19:42:31.830Z,25.10
2018-04-12T19:45:02.613Z,23.20
2018-04-12T19:47:31.762Z,23.60
2018-04-12T19:50:00.889Z,25.40
2018-04-12T19:52:35.276Z,25.70
2018-04-12T19:55:05.088Z,22.70
2018-04-12T19:57:33.261Z,23.40
2018-04-12T20:00:02.552Z,24.20
2018-04-12T20:02:37.252Z,23.60
2018-04-12T20:05:07.564Z,24.10
2018-04-12T20:07:35.741Z,22.60
2018-04-12T20:10:04.521Z,25.30
2018-04-12T20:12:32.765Z,24.10
2018-04-12T20:15:02.596Z,23.30
2018-04-12T20:17:32.103Z,25.00
2018-04-12T20:20:01.188Z,26.50
2018-04-12T20:22:30.766Z,25.10
2018-04-12T20:24:59.702Z,26.60
2018-04-12T20:27:29.886Z,28.00
2018-04-12T20:29:58.992Z,28.70
2018-04-12T20:32:29.758Z,31.30
2018-04-12T20:35:01.820Z,30.40
2018-04-12T20:37:31.792Z,28.90
2018-04-12T20:39:59.958Z,25.90
2018-04-12T20:42:28.560Z,25.30
2018-04-12T20:45:00.496Z,27.20
2018-04-12T20:47:34.322Z,27.20
2018-04-12T20:50:02.822Z,28.50
2018-04-12T20:52:34.839Z,26.30
2018-04-12T20:55:09.513Z,28.00
2018-04-12T20:57:38.661Z,28.40
2018-04-12T21:00:09.084Z,28.00
2018-04-12T21:02:40.815Z,28.40
2018-04-12T21:05:11.154Z,30.10
2018-04-12T21:07:40.132Z,33.70
2018-04-12T21:10:10.656Z,30.80
2018-04-12T21:12:41.611Z,31.20
2018-04-12T21:15:13.016Z,30.30
2018-04-12T21:20:12.651Z,31.30
2018-04-12T21:22:41.898Z,30.50
2018-04-12T21:25:20.940Z,33.10
2018-04-12T21:27:53.875Z,34.10
2018-04-12T21:30:25.609Z,32.70
2018-04-12T21:32:56.052Z,33.30
2018-04-12T21:35:29.768Z,33.10
2018-04-12T21:38:02.343Z,32.40
2018-04-12T21:40:36.373Z,35.40
2018-04-12T21:43:06.733Z,34.20
2018-04-12T21:45:36.700Z,35.50
2018-04-12T21:48:09.816Z,35.20
2018-04-12T21:50:40.442Z,36.90
2018-04-12T21:53:12.407Z,36.70
2018-04-12T21:58:14.567Z,38.60
2018-04-12T22:00:46.322Z,40.30
2018-04-12T22:05:45.600Z,42.70
2018-04-12T22:08:14.930Z,42.80
2018-04-12T22:10:47.655Z,41.40
2018-04-12T22:15:52.633Z,41.10
2018-04-12T22:18:23.292Z,40.60
2018-04-12T22:20:58.055Z,42.50
2018-04-12T22:23:27.371Z,42.70
2018-04-12T22:25:55.608Z,42.90
2018-04-12T22:28:25.903Z,46.90
2018-04-12T22:31:01.981Z,47.60
2018-04-12T22:33:31.960Z,49.30
2018-04-12T22:36:05.106Z,51.80
2018-04-12T22:38:34.037Z,52.50
2018-04-12T22:41:03.305Z,54.50
2018-04-12T22:43:33.161Z,56.50
2018-04-12T22:46:01.362Z,57.80
2018-04-12T22:48:31.422Z,58.20
2018-04-12T22:51:03.723Z,58.20
2018-04-12T22:53:34.852Z,58.40
2018-04-12T22:56:22.974Z,56.80
2018-04-12T22:58:53.759Z,57.20
2018-04-12T23:01:26.036Z,59.00
2018-04-12T23:03:54.720Z,58.30
2018-04-12T23:06:25.294Z,60.60
2018-04-12T23:08:54.572Z,61.40
2018-04-12T23:11:33.023Z,63.00
2018-04-12T23:25:40.850Z,65.10
2018-04-12T23:28:20.847Z,64.20
2018-04-12T23:30:56.715Z,63.60
2018-04-12T23:36:23.847Z,65.00
2018-04-12T23:39:00.459Z,65.70
2018-04-12T23:41:40.739Z,65.80
2018-04-12T23:52:24.966Z,66.40
